Time;durP1;ratioP1;P1;durP2;ratioP2;P2;SDS_P1;SDS_P2;PMS_P1;PMS_P2;Temp;Humidity;BMP_temperature;BMP_pressure;BME280_temperature;BME280_humidity;BME280_pressure;Samples;Min_cycle;Max_cycle;Signal;HPM_P1;HPM_P2
2023/08/06 00:00:40;;;;;;;1.27;1.17;;;;;;;16.17;100.00;97642.81;4118711;28;20257;-46
2023/08/06 00:02:42;;;;;;;2.65;1.70;;;;;;;16.05;100.00;97637.81;4120420;28;20735;-47
2023/08/06 00:04:44;;;;;;;4.35;1.35;;;;;;;16.08;100.00;97634.44;4119828;28;20249;-47
2023/08/06 00:06:46;;;;;;;2.53;1.50;;;;;;;16.10;100.00;97636.88;4127702;28;20214;-47
2023/08/06 00:08:48;;;;;;;1.50;1.38;;;;;;;16.06;100.00;97630.34;4127226;28;20206;-46
2023/08/06 00:10:49;;;;;;;2.95;1.40;;;;;;;16.09;100.00;97629.72;4104319;28;20270;-47
2023/08/06 00:12:51;;;;;;;1.48;1.38;;;;;;;16.01;100.00;97634.00;4119895;28;20231;-47
2023/08/06 00:14:53;;;;;;;1.92;1.60;;;;;;;16.12;100.00;97635.47;4102213;28;20222;-47
2023/08/06 00:16:55;;;;;;;2.08;1.30;;;;;;;16.09;100.00;97632.50;4120249;28;20260;-47
2023/08/06 00:18:56;;;;;;;4.07;1.50;;;;;;;16.10;100.00;97623.88;4114888;28;20955;-47
2023/08/06 00:20:58;;;;;;;3.97;1.25;;;;;;;16.10;100.00;97623.88;4134832;28;20309;-47
2023/08/06 00:23:00;;;;;;;3.90;1.73;;;;;;;15.99;100.00;97622.47;4127294;28;20269;-48
2023/08/06 00:25:03;;;;;;;2.10;1.40;;;;;;;16.01;100.00;97622.97;4119583;28;20214;-46
2023/08/06 00:27:05;;;;;;;2.45;1.27;;;;;;;16.00;100.00;97620.50;4115870;28;20330;-47
2023/08/06 00:29:07;;;;;;;1.40;1.30;;;;;;;16.00;100.00;97602.03;4119900;28;20655;-48
2023/08/06 00:31:08;;;;;;;2.55;1.52;;;;;;;15.88;100.00;97611.91;4121425;28;20202;-46
2023/08/06 00:33:10;;;;;;;4.75;1.20;;;;;;;15.95;100.00;97610.41;4120409;28;20211;-47
2023/08/06 00:35:13;;;;;;;3.00;1.58;;;;;;;16.01;100.00;97609.19;4115894;28;20211;-46
2023/08/06 00:37:18;;;;;;;1.20;1.10;;;;;;;16.08;100.00;97598.53;4116567;28;20207;-46
2023/08/06 00:39:19;;;;;;;3.45;1.38;;;;;;;16.10;100.00;97596.28;4128751;28;20264;-46
2023/08/06 00:41:21;;;;;;;1.27;1.15;;;;;;;16.00;100.00;97593.75;4118276;28;20226;-47
2023/08/06 00:43:23;;;;;;;4.03;1.80;;;;;;;16.06;100.00;97592.53;4109897;28;20257;-46
2023/08/06 00:45:25;;;;;;;1.95;1.55;;;;;;;16.05;100.00;97577.09;4103335;28;20379;-46
2023/08/06 00:47:26;;;;;;;1.55;1.42;;;;;;;16.04;100.00;97580.94;4120016;28;20804;-46
2023/08/06 00:49:29;;;;;;;1.67;1.27;;;;;;;16.13;100.00;97587.41;4133861;28;20212;-46
2023/08/06 00:51:35;;;;;;;2.38;1.27;;;;;;;16.16;100.00;97581.25;4119506;28;20239;-48
2023/08/06 00:53:38;;;;;;;1.60;1.42;;;;;;;16.11;100.00;97581.38;4101270;28;20229;-47
2023/08/06 00:55:40;;;;;;;3.13;1.30;;;;;;;16.12;100.00;97568.38;4126322;28;20325;-46
2023/08/06 00:57:41;;;;;;;1.88;1.33;;;;;;;16.05;100.00;97574.34;4118897;28;20260;-46
2023/08/06 00:59:43;;;;;;;3.28;1.52;;;;;;;16.05;100.00;97571.56;4116914;28;20221;-47
2023/08/06 01:01:45;;;;;;;2.17;1.50;;;;;;;16.04;100.00;97572.66;4125909;28;20320;-46
2023/08/06 01:03:47;;;;;;;1.42;1.27;;;;;;;16.04;100.00;97567.16;4117224;28;20297;-46
2023/08/06 01:05:49;;;;;;;2.03;1.55;;;;;;;16.04;100.00;97571.88;4135617;28;20210;-48
2023/08/06 01:08:12;;;;;;;3.55;1.58;;;;;;;16.03;100.00;97573.00;4121719;28;20226;-46
2023/08/06 01:10:23;;;;;;;3.88;1.25;;;;;;;16.07;100.00;97583.13;4136612;28;20213;-45
2023/08/06 01:12:46;;;;;;;1.40;1.20;;;;;;;16.00;100.00;97571.66;4116477;28;20229;-47
2023/08/06 01:15:05;;;;;;;2.88;1.20;;;;;;;16.05;100.00;97571.56;4110742;28;20937;-46
2023/08/06 01:17:07;;;;;;;3.00;0.90;;;;;;;15.95;100.00;97569.00;4124898;28;20209;-47
2023/08/06 01:19:18;;;;;;;0.80;0.80;;;;;;;15.88;100.00;97593.44;4121450;28;20311;-47
2023/08/06 01:21:20;;;;;;;1.50;1.20;;;;;;;15.78;100.00;97585.38;4120368;28;20230;-45
2023/08/06 01:23:22;;;;;;;1.65;1.17;;;;;;;15.80;100.00;97588.63;4126597;28;20206;-46
2023/08/06 01:25:31;;;;;;;3.03;1.30;;;;;;;15.78;100.00;97585.38;4120400;28;20221;-46
2023/08/06 01:27:48;;;;;;;1.15;1.00;;;;;;;15.68;100.00;97582.81;4121370;28;20261;-47
2023/08/06 01:29:57;;;;;;;1.38;1.05;;;;;;;15.61;100.00;97585.16;4116129;28;20217;-46
2023/08/06 01:31:59;;;;;;;2.30;0.95;;;;;;;15.69;100.00;97587.19;4118371;28;21193;-45
2023/08/06 01:34:03;;;;;;;1.92;1.10;;;;;;;15.71;100.00;97579.41;4116814;28;20210;-47
2023/08/06 01:36:05;;;;;;;1.63;1.17;;;;;;;15.69;100.00;97581.69;4106629;28;20202;-46
2023/08/06 01:38:07;;;;;;;3.10;1.00;;;;;;;15.70;100.00;97580.53;4117042;28;20202;-46
2023/08/06 01:40:13;;;;;;;2.42;1.13;;;;;;;15.66;100.00;97582.31;4121171;28;20246;-46
2023/08/06 01:42:15;;;;;;;1.42;1.17;;;;;;;15.63;100.00;97577.38;4103913;28;20231;-46
2023/08/06 01:44:17;;;;;;;3.33;1.40;;;;;;;15.54;100.00;97579.22;4135921;28;20210;-46
2023/08/06 01:46:18;;;;;;;1.67;1.08;;;;;;;15.52;100.00;97573.19;4119478;28;20613;-46
2023/08/06 01:48:20;;;;;;;1.38;1.20;;;;;;;15.48;100.00;97574.91;4121185;28;20222;-47
2023/08/06 01:50:22;;;;;;;3.88;1.27;;;;;;;15.46;100.00;97566.13;4121266;28;20210;-47
2023/08/06 01:52:24;;;;;;;2.78;1.33;;;;;;;15.48;100.00;97563.88;4126257;28;20233;-46
2023/08/06 01:54:25;;;;;;;1.98;1.23;;;;;;;15.50;100.00;97561.63;4126550;28;20209;-46
2023/08/06 01:56:27;;;;;;;2.53;0.93;;;;;;;15.42;100.00;97565.09;4118573;28;20897;-46
2023/08/06 01:58:29;;;;;;;4.65;1.13;;;;;;;15.39;100.00;97559.38;4101365;28;20618;-47
2023/08/06 02:00:31;;;;;;;3.15;1.20;;;;;;;15.52;100.00;97556.66;4126509;28;20261;-47
2023/08/06 02:02:33;;;;;;;1.10;0.88;;;;;;;15.50;100.00;97556.13;4135340;28;20284;-46
2023/08/06 02:04:35;;;;;;;3.63;1.10;;;;;;;15.44;100.00;97557.34;4121405;28;20329;-48
2023/08/06 02:06:37;;;;;;;1.63;0.80;;;;;;;15.50;100.00;97556.13;4125736;28;20305;-47
2023/08/06 02:08:39;;;;;;;2.40;0.80;;;;;;;15.52;100.00;97553.91;4116813;28;20242;-46
2023/08/06 02:10:41;;;;;;;3.28;1.10;;;;;;;15.45;100.00;97552.66;4125954;28;20214;-46
2023/08/06 02:12:43;;;;;;;2.13;0.82;;;;;;;15.45;100.00;97552.66;4117983;28;20235;-46
2023/08/06 02:14:45;;;;;;;1.60;1.00;;;;;;;15.42;100.00;97548.56;4116674;28;20583;-46
2023/08/06 02:16:46;;;;;;;1.33;0.90;;;;;;;15.45;100.00;97547.97;4111603;28;20214;-45
2023/08/06 02:18:48;;;;;;;5.22;1.30;;;;;;;15.46;100.00;97549.59;4120324;28;20719;-47
2023/08/06 02:20:57;;;;;;;1.08;0.90;;;;;;;15.40;100.00;97545.28;4118794;28;20286;-48
2023/08/06 02:22:59;;;;;;;1.75;0.90;;;;;;;15.40;100.00;97550.81;4117670;28;20240;-47
2023/08/06 02:25:01;;;;;;;2.05;0.93;;;;;;;15.40;100.00;97545.28;4123762;28;20260;-47
2023/08/06 02:27:03;;;;;;;1.83;0.80;;;;;;;15.39;100.00;97543.66;4118254;28;20707;-46
2023/08/06 02:29:05;;;;;;;1.95;1.10;;;;;;;15.31;100.00;97541.56;4118312;28;20218;-46
2023/08/06 02:31:07;;;;;;;2.38;1.13;;;;;;;15.29;100.00;97543.81;4127897;28;20671;-46
2023/08/06 02:33:09;;;;;;;1.92;1.40;;;;;;;15.24;100.00;97535.63;4129677;28;20269;-48
2023/08/06 02:35:10;;;;;;;1.00;0.90;;;;;;;15.07;100.00;97532.66;4119386;28;20209;-47
2023/08/06 02:37:12;;;;;;;2.45;1.05;;;;;;;15.01;100.00;97525.59;4128747;28;20833;-46
2023/08/06 02:39:14;;;;;;;1.58;1.00;;;;;;;15.09;100.00;97524.09;4120571;28;20291;-46
2023/08/06 02:41:18;;;;;;;2.03;1.00;;;;;;;14.98;100.00;97528.13;4119117;28;20195;-46
2023/08/06 02:43:20;;;;;;;2.70;0.95;;;;;;;15.08;100.00;97531.53;4121391;28;20218;-46
2023/08/06 02:45:22;;;;;;;1.30;0.82;;;;;;;15.19;100.00;97524.72;4127033;28;20209;-46
2023/08/06 02:47:24;;;;;;;3.40;0.98;;;;;;;15.24;100.00;97530.13;4120331;28;20213;-48
2023/08/06 02:49:26;;;;;;;3.15;1.30;;;;;;;15.13;100.00;97522.34;4123686;28;20241;-46
2023/08/06 02:51:27;;;;;;;1.25;0.90;;;;;;;15.06;100.00;97528.25;4113336;28;20234;-47
2023/08/06 02:53:29;;;;;;;1.85;0.80;;;;;;;14.89;100.00;97524.44;4141112;28;20607;-49
2023/08/06 02:55:31;;;;;;;3.92;1.00;;;;;;;14.87;100.00;97530.25;4122255;28;20216;-47
2023/08/06 02:57:33;;;;;;;1.58;0.70;;;;;;;14.92;100.00;97527.41;4106507;28;20211;-45
2023/08/06 02:59:34;;;;;;;0.47;0.47;;;;;;;14.84;100.00;97541.84;4111415;28;20210;-46
2023/08/06 03:01:36;;;;;;;0.80;0.80;;;;;;;14.77;100.00;97535.91;4121193;28;20650;-45
2023/08/06 03:03:38;;;;;;;1.20;0.77;;;;;;;14.73;100.00;97534.06;4105419;28;20210;-47
2023/08/06 03:05:39;;;;;;;0.73;0.73;;;;;;;14.69;100.00;97533.84;4126367;28;20245;-47
2023/08/06 03:07:41;;;;;;;0.65;0.65;;;;;;;14.66;100.00;97528.13;4128417;28;20687;-47
2023/08/06 03:09:43;;;;;;;2.28;0.80;;;;;;;14.59;100.00;97528.50;4120689;28;20227;-46
2023/08/06 03:11:45;;;;;;;0.65;0.50;;;;;;;14.61;100.00;97525.44;4125417;28;20226;-46
2023/08/06 03:13:47;;;;;;;1.48;0.82;;;;;;;14.66;100.00;97528.13;4107587;28;20210;-47
2023/08/06 03:15:56;;;;;;;0.40;0.40;;;;;;;14.73;100.00;97529.38;4125860;28;20217;-48
2023/08/06 03:17:58;;;;;;;0.80;0.57;;;;;;;14.74;100.00;97520.00;4126477;28;20223;-46
2023/08/06 03:20:00;;;;;;;3.42;1.88;;;;;;;14.73;100.00;97521.13;4133314;28;20210;-46
2023/08/06 03:22:01;;;;;;;1.30;0.57;;;;;;;14.64;100.00;97508.34;4125315;28;20241;-48
2023/08/06 03:24:03;;;;;;;0.57;0.50;;;;;;;14.51;100.00;97515.41;4116688;28;20211;-47
2023/08/06 03:26:05;;;;;;;1.20;0.95;;;;;;;14.62;100.00;97516.09;4120872;28;20210;-46
2023/08/06 03:28:07;;;;;;;0.60;0.60;;;;;;;14.58;100.00;97515.84;4126597;28;20214;-46
2023/08/06 03:30:09;;;;;;;1.35;0.63;;;;;;;14.53;100.00;97517.88;4125748;28;20720;-50
2023/08/06 03:32:11;;;;;;;1.45;0.32;;;;;;;14.53;100.00;97515.94;4119767;28;20325;-47
2023/08/06 03:34:12;;;;;;;2.05;0.50;;;;;;;14.55;100.00;97516.44;4119431;28;20214;-47
2023/08/06 03:36:14;;;;;;;0.90;0.50;;;;;;;14.53;100.00;97521.44;4119624;28;20230;-47
2023/08/06 03:38:16;;;;;;;0.63;0.50;;;;;;;14.53;100.00;97518.69;4128350;28;20214;-46
2023/08/06 03:40:17;;;;;;;0.60;0.50;;;;;;;14.61;100.00;97518.00;4117203;28;20214;-47
2023/08/06 03:42:19;;;;;;;1.35;0.63;;;;;;;14.67;100.00;97518.72;4118256;28;20229;-46
2023/08/06 03:44:21;;;;;;;2.42;0.60;;;;;;;14.68;100.00;97526.72;4125294;28;20213;-47
2023/08/06 03:46:22;;;;;;;0.60;0.43;;;;;;;14.60;100.00;97519.13;4119552;28;20257;-47
2023/08/06 03:48:24;;;;;;;0.63;0.50;;;;;;;14.67;100.00;97519.56;4118610;28;22058;-49
2023/08/06 03:50:26;;;;;;;0.40;0.40;;;;;;;14.53;100.00;97513.19;4104381;28;20226;-46
2023/08/06 03:52:28;;;;;;;13.85;2.90;;;;;;;14.51;100.00;97515.41;4126221;28;20233;-46
2023/08/06 03:54:30;;;;;;;0.40;0.40;;;;;;;14.50;100.00;97516.53;4121965;28;20225;-47
2023/08/06 03:56:31;;;;;;;0.50;0.50;;;;;;;14.56;100.00;97517.28;4103543;28;20217;-46
2023/08/06 03:58:33;;;;;;;0.30;0.30;;;;;;;14.58;100.00;97521.34;4119604;28;20266;-46
2023/08/06 04:00:35;;;;;;;0.52;0.50;;;;;;;14.43;100.00;97518.84;4118582;28;20206;-46
2023/08/06 04:02:36;;;;;;;1.30;0.63;;;;;;;14.52;100.00;97517.06;4122637;28;20234;-47
2023/08/06 04:04:38;;;;;;;0.30;0.30;;;;;;;14.61;100.00;97519.94;4125858;28;20212;-46
2023/08/06 04:06:40;;;;;;;0.50;0.50;;;;;;;14.48;100.00;97516.03;4127604;28;20214;-46
2023/08/06 04:08:42;;;;;;;0.40;0.40;;;;;;;14.54;100.00;97525.00;4106102;28;20641;-46
2023/08/06 04:10:44;;;;;;;0.38;0.35;;;;;;;14.49;100.00;97522.34;4103069;28;20217;-46
2023/08/06 04:12:45;;;;;;;0.35;0.32;;;;;;;14.47;100.00;97514.38;4123310;28;20276;-46
2023/08/06 04:14:47;;;;;;;1.05;0.40;;;;;;;14.38;100.00;97518.91;4115380;28;20282;-47
2023/08/06 04:16:49;;;;;;;1.20;0.47;;;;;;;14.36;100.00;97521.16;4135012;28;20669;-46
2023/08/06 04:18:51;;;;;;;1.10;0.45;;;;;;;14.38;100.00;97524.41;4120992;28;20636;-47
2023/08/06 04:20:55;;;;;;;0.35;0.35;;;;;;;14.39;100.00;97517.81;4119292;28;21113;-46
2023/08/06 04:22:56;;;;;;;1.27;1.17;;;;;;;14.23;100.00;97516.41;4121766;28;20226;-46
2023/08/06 04:24:58;;;;;;;0.45;0.30;;;;;;;14.21;100.00;97521.38;4124055;28;20209;-45
2023/08/06 04:27:00;;;;;;;0.95;0.40;;;;;;;14.20;100.00;97518.94;4124741;28;20584;-46
2023/08/06 04:29:01;;;;;;;1.17;0.57;;;;;;;14.23;100.00;97513.66;4120634;28;20671;-46
2023/08/06 04:31:03;;;;;;;0.45;0.45;;;;;;;14.21;100.00;97518.63;4118259;28;20269;-46
2023/08/06 04:33:05;;;;;;;0.40;0.40;;;;;;;14.20;100.00;97511.50;4123735;28;20206;-49
2023/08/06 04:35:07;;;;;;;0.75;0.45;;;;;;;14.16;100.00;97520.63;4100388;28;20246;-48
2023/08/06 04:37:08;;;;;;;0.45;0.45;;;;;;;14.20;100.00;97519.75;4117922;28;20653;-46
2023/08/06 04:39:10;;;;;;;1.05;0.60;;;;;;;14.11;100.00;97518.72;4126192;28;20221;-46
2023/08/06 04:41:12;;;;;;;1.45;0.70;;;;;;;14.18;100.00;97516.47;4118180;28;20221;-49
2023/08/06 04:43:14;;;;;;;0.60;0.60;;;;;;;14.16;100.00;97512.38;4125937;28;20643;-46
2023/08/06 04:45:15;;;;;;;0.32;0.32;;;;;;;14.13;100.00;97511.03;4101413;28;20207;-47
2023/08/06 04:47:18;;;;;;;0.60;0.60;;;;;;;14.15;100.00;97519.78;4125102;28;20264;-48
2023/08/06 04:49:20;;;;;;;0.90;0.50;;;;;;;14.19;100.00;97518.13;4117650;28;20223;-47
2023/08/06 04:51:22;;;;;;;2.03;0.50;;;;;;;14.20;100.00;97519.75;4119932;28;20230;-47
2023/08/06 04:53:24;;;;;;;0.52;0.50;;;;;;;14.08;100.00;97513.84;4125852;28;20260;-47
2023/08/06 04:55:25;;;;;;;1.25;0.60;;;;;;;14.10;100.00;97519.84;4119970;28;20215;-48
2023/08/06 04:57:27;;;;;;;1.05;0.50;;;;;;;14.18;100.00;97519.22;4118779;28;20214;-49
2023/08/06 04:59:29;;;;;;;0.73;0.50;;;;;;;14.17;100.00;97514.81;4125344;28;20232;-48
2023/08/06 05:01:30;;;;;;;1.20;0.60;;;;;;;14.18;100.00;97516.47;4120526;28;20627;-49
2023/08/06 05:03:32;;;;;;;0.85;0.70;;;;;;;14.25;100.00;97518.84;4119374;28;20217;-47
2023/08/06 05:05:34;;;;;;;0.98;0.95;;;;;;;14.13;100.00;97516.53;4108439;28;20254;-48
2023/08/06 05:07:36;;;;;;;0.40;0.40;;;;;;;14.11;100.00;97515.97;4106448;28;20238;-47
2023/08/06 05:09:37;;;;;;;0.45;0.45;;;;;;;14.10;100.00;97519.06;4125697;28;20235;-46
2023/08/06 05:11:41;;;;;;;1.58;0.45;;;;;;;14.16;100.00;97520.63;4126423;28;21062;-46
2023/08/06 05:13:43;;;;;;;0.75;0.55;;;;;;;14.21;100.00;97521.38;4119893;28;20210;-46
2023/08/06 05:15:46;;;;;;;0.35;0.35;;;;;;;14.23;100.00;97524.66;4126161;28;20224;-46
2023/08/06 05:17:47;;;;;;;1.23;0.60;;;;;;;14.14;100.00;97518.16;4122785;28;21030;-46
2023/08/06 05:19:49;;;;;;;0.50;0.50;;;;;;;14.21;100.00;97524.13;4134812;28;20664;-46
2023/08/06 05:21:51;;;;;;;0.80;0.50;;;;;;;14.04;100.00;97517.47;4121334;28;20242;-47
2023/08/06 05:23:53;;;;;;;0.70;0.70;;;;;;;14.14;100.00;97520.91;4116299;28;20553;-46
2023/08/06 05:25:55;;;;;;;0.77;0.60;;;;;;;14.10;100.00;97525.34;4109244;28;20277;-49
2023/08/06 05:27:57;;;;;;;0.80;0.43;;;;;;;14.13;100.00;97513.78;4105634;28;20206;-48
2023/08/06 05:29:58;;;;;;;3.63;0.98;;;;;;;14.12;100.00;97517.66;4118305;28;20756;-47
2023/08/06 05:32:00;;;;;;;0.60;0.52;;;;;;;14.20;100.00;97524.44;4124235;28;20292;-46
2023/08/06 05:34:02;;;;;;;2.95;0.60;;;;;;;14.12;100.00;97517.66;4105022;28;20211;-46
2023/08/06 05:36:04;;;;;;;0.90;0.63;;;;;;;14.14;100.00;97522.84;4116166;28;20207;-48
2023/08/06 05:38:06;;;;;;;0.70;0.45;;;;;;;14.15;100.00;97519.78;4123021;28;20206;-46
2023/08/06 05:40:08;;;;;;;0.75;0.63;;;;;;;14.22;100.00;97524.97;4121153;28;20202;-47
2023/08/06 05:42:10;;;;;;;0.50;0.50;;;;;;;14.12;100.00;97525.91;4119306;28;20234;-49
2023/08/06 05:44:12;;;;;;;0.68;0.68;;;;;;;14.16;100.00;97529.69;4115478;28;20250;-49
2023/08/06 05:46:14;;;;;;;1.35;0.65;;;;;;;14.21;100.00;97529.66;4114115;28;20210;-48
2023/08/06 05:48:16;;;;;;;0.80;0.70;;;;;;;14.23;100.00;97527.41;4118991;28;20245;-47
2023/08/06 05:50:17;;;;;;;0.88;0.65;;;;;;;14.26;100.00;97529.56;4108760;28;20230;-47
2023/08/06 05:52:19;;;;;;;0.60;0.60;;;;;;;14.24;100.00;97526.28;4125743;28;20230;-47
2023/08/06 05:54:21;;;;;;;0.70;0.60;;;;;;;14.27;100.00;97531.22;4100771;28;20265;-47
2023/08/06 05:56:23;;;;;;;0.93;0.63;;;;;;;14.42;100.00;97528.22;4117571;28;20538;-47
2023/08/06 05:58:26;;;;;;;0.63;0.63;;;;;;;14.50;100.00;97523.97;4125310;28;20214;-45
2023/08/06 06:00:28;;;;;;;0.60;0.47;;;;;;;14.58;100.00;97526.84;4121759;28;20213;-46
2023/08/06 06:02:29;;;;;;;0.85;0.40;;;;;;;14.49;100.00;97534.16;4122482;28;20233;-47
2023/08/06 06:04:31;;;;;;;0.47;0.47;;;;;;;14.42;100.00;97533.72;4127763;28;20214;-46
2023/08/06 06:06:33;;;;;;;0.70;0.50;;;;;;;14.47;100.00;97544.66;4121447;28;20652;-47
2023/08/06 06:08:35;;;;;;;0.82;0.77;;;;;;;14.46;100.00;97533.94;4122806;28;20900;-48
2023/08/06 06:10:37;;;;;;;0.40;0.40;;;;;;;14.30;100.00;97538.84;4122098;28;20724;-47
2023/08/06 06:12:39;;;;;;;0.73;0.40;;;;;;;14.31;100.00;97537.72;4127238;28;20284;-47
2023/08/06 06:14:40;;;;;;;0.60;0.60;;;;;;;14.33;100.00;97541.03;4120283;28;20264;-47
2023/08/06 06:16:42;;;;;;;0.63;0.50;;;;;;;14.46;100.00;97533.94;4120416;28;20206;-48
2023/08/06 06:18:44;;;;;;;0.85;0.50;;;;;;;14.42;100.00;97541.97;4127569;28;20281;-47
2023/08/06 06:20:45;;;;;;;0.93;0.70;;;;;;;14.53;100.00;97540.72;4104849;28;20199;-47
2023/08/06 06:22:47;;;;;;;0.47;0.40;;;;;;;14.46;100.00;97534.78;4127208;28;20229;-46
2023/08/06 06:24:49;;;;;;;0.80;0.50;;;;;;;14.44;100.00;97541.69;4121533;28;20983;-47
2023/08/06 06:26:51;;;;;;;0.70;0.70;;;;;;;14.56;100.00;97545.63;4122796;28;20202;-46
2023/08/06 06:28:52;;;;;;;0.40;0.40;;;;;;;14.58;100.00;97542.56;4111109;28;20238;-46
2023/08/06 06:31:00;;;;;;;0.43;0.43;;;;;;;14.57;100.00;97549.19;4129918;28;20210;-47
2023/08/06 06:33:01;;;;;;;0.40;0.40;;;;;;;14.61;100.00;97541.97;4122172;28;20325;-47
2023/08/06 06:35:04;;;;;;;0.40;0.40;;;;;;;14.61;100.00;97545.53;4126291;28;20233;-47
2023/08/06 06:37:06;;;;;;;0.45;0.40;;;;;;;14.63;100.00;97546.06;4121253;28;20257;-47
2023/08/06 06:39:08;;;;;;;1.23;0.40;;;;;;;14.40;100.00;97549.72;4111907;28;20258;-47
2023/08/06 06:41:10;;;;;;;0.70;0.40;;;;;;;14.46;100.00;97545.78;4126623;28;20248;-48
2023/08/06 06:43:11;;;;;;;0.60;0.40;;;;;;;14.36;100.00;97551.44;4108520;28;20246;-46
2023/08/06 06:45:13;;;;;;;0.40;0.40;;;;;;;14.46;100.00;97551.28;4104751;28;20722;-46
2023/08/06 06:47:15;;;;;;;0.45;0.45;;;;;;;14.36;100.00;97545.94;4120340;28;20260;-46
2023/08/06 06:49:16;;;;;;;0.40;0.40;;;;;;;14.42;100.00;97544.72;4120556;28;20680;-47
2023/08/06 06:51:18;;;;;;;0.40;0.40;;;;;;;14.46;100.00;97551.28;4128393;28;20284;-46
2023/08/06 06:53:20;;;;;;;1.30;0.68;;;;;;;14.48;100.00;97542.72;4122789;28;20211;-46
2023/08/06 06:55:22;;;;;;;0.65;0.65;;;;;;;14.59;100.00;97553.28;4110545;28;20211;-46
2023/08/06 06:57:24;;;;;;;0.90;0.63;;;;;;;14.69;100.00;97557.81;4123695;28;20619;-46
2023/08/06 06:59:25;;;;;;;1.05;0.77;;;;;;;14.99;100.00;97560.91;4121198;28;20214;-48
2023/08/06 07:01:27;;;;;;;1.35;0.60;;;;;;;15.21;100.00;97547.28;4119999;28;20286;-47
2023/08/06 07:03:29;;;;;;;0.82;0.60;;;;;;;15.12;100.00;97554.63;4119609;28;20213;-46
2023/08/06 07:05:31;;;;;;;1.60;0.80;;;;;;;15.24;100.00;97552.16;4122112;28;20290;-48
2023/08/06 07:07:32;;;;;;;0.80;0.73;;;;;;;15.19;100.00;97559.72;4121382;28;20306;-47
2023/08/06 07:09:35;;;;;;;7.07;1.08;;;;;;;15.40;100.00;97561.84;4103322;28;20234;-45
2023/08/06 07:11:36;;;;;;;1.38;0.60;;;;;;;15.55;100.00;97564.31;4119455;28;20241;-44
2023/08/06 07:13:38;;;;;;;0.80;0.70;;;;;;;15.47;100.00;97566.94;4122430;28;20214;-47
2023/08/06 07:15:40;;;;;;;0.95;0.73;;;;;;;15.41;100.00;97557.94;4122153;28;20218;-45
2023/08/06 07:17:44;;;;;;;0.90;0.80;;;;;;;15.20;100.00;97562.19;4126402;28;20723;-46
2023/08/06 07:19:46;;;;;;;3.85;1.00;;;;;;;15.10;100.00;97567.84;4119728;28;20207;-46
2023/08/06 07:21:48;;;;;;;1.67;0.80;;;;;;;15.13;100.00;97564.50;4118540;28;20235;-46
2023/08/06 07:23:50;;;;;;;0.60;0.60;;;;;;;14.93;100.00;97573.13;4122225;28;20551;-45
2023/08/06 07:25:52;;;;;;;0.80;0.60;;;;;;;14.93;100.00;97570.38;4112109;28;20218;-47
2023/08/06 07:27:53;;;;;;;1.00;0.70;;;;;;;14.97;100.00;97571.38;4121907;28;20328;-47
2023/08/06 07:29:55;;;;;;;0.63;0.60;;;;;;;15.17;100.00;97568.28;4111843;28;20222;-46
2023/08/06 07:31:57;;;;;;;0.50;0.50;;;;;;;15.11;100.00;97572.25;4104921;28;20227;-46
2023/08/06 07:33:58;;;;;;;0.75;0.70;;;;;;;15.04;100.00;97573.75;4120109;28;20225;-47
2023/08/06 07:36:07;;;;;;;0.50;0.50;;;;;;;15.13;100.00;97581.03;4118915;28;20688;-47
2023/08/06 07:38:09;;;;;;;0.50;0.50;;;;;;;15.20;100.00;97580.63;4119253;28;20206;-47
2023/08/06 07:40:11;;;;;;;0.50;0.50;;;;;;;15.29;100.00;97576.88;4121808;28;20561;-46
2023/08/06 07:42:13;;;;;;;0.40;0.40;;;;;;;15.27;100.00;97579.13;4120322;28;21021;-47
2023/08/06 07:44:15;;;;;;;0.85;0.50;;;;;;;15.16;100.00;97585.13;4127189;28;20210;-46
2023/08/06 07:46:17;;;;;;;0.40;0.40;;;;;;;15.12;100.00;97584.09;4123386;28;20205;-47
2023/08/06 07:48:18;;;;;;;0.40;0.40;;;;;;;15.12;100.00;97582.16;4120956;28;20206;-47
2023/08/06 07:50:20;;;;;;;0.52;0.40;;;;;;;15.16;100.00;97577.66;4120227;28;20255;-46
2023/08/06 07:52:22;;;;;;;0.40;0.40;;;;;;;15.26;100.00;97576.69;4120756;28;20672;-45
2023/08/06 07:54:24;;;;;;;0.85;0.55;;;;;;;15.33;100.00;97571.63;4120845;28;20265;-46
2023/08/06 07:56:25;;;;;;;0.47;0.47;;;;;;;15.43;100.00;97572.25;4107279;28;20236;-46
2023/08/06 07:58:29;;;;;;;0.90;0.40;;;;;;;15.62;100.00;97575.75;4122796;28;20214;-45
2023/08/06 08:00:31;;;;;;;0.50;0.50;;;;;;;15.61;100.00;97582.38;4123791;28;20239;-48
2023/08/06 08:02:33;;;;;;;0.40;0.40;;;;;;;15.49;100.00;97582.06;4126710;28;20237;-47
2023/08/06 08:04:34;;;;;;;1.20;0.40;;;;;;;15.61;100.00;97579.63;4119706;28;20212;-47
2023/08/06 08:06:36;;;;;;;0.40;0.40;;;;;;;15.52;100.00;97584.22;4116192;28;20206;-48
2023/08/06 08:08:38;;;;;;;0.45;0.45;;;;;;;15.38;100.00;97568.78;4118413;28;20198;-45
2023/08/06 08:10:40;;;;;;;0.40;0.40;;;;;;;15.44;100.00;97576.63;4118194;28;20647;-48
2023/08/06 08:12:42;;;;;;;0.70;0.47;;;;;;;15.52;100.00;97575.97;4119815;28;20729;-46
2023/08/06 08:14:45;;;;;;;0.50;0.38;;;;;;;15.59;100.00;97579.13;4126219;28;20731;-46
2023/08/06 08:16:47;;;;;;;0.40;0.40;;;;;;;15.89;100.00;97577.72;4134296;28;20201;-46
2023/08/06 08:18:48;;;;;;;0.35;0.35;;;;;;;16.01;100.00;97572.47;4125210;28;20252;-46
2023/08/06 08:20:50;;;;;;;0.30;0.30;;;;;;;16.12;100.00;97568.38;4104046;28;20215;-46
2023/08/06 08:22:52;;;;;;;0.70;0.30;;;;;;;16.15;100.00;97578.81;4100132;28;20591;-46
2023/08/06 08:24:54;;;;;;;0.30;0.30;;;;;;;16.10;100.00;97576.97;4119030;28;20217;-47
2023/08/06 08:26:56;;;;;;;1.45;0.32;;;;;;;15.94;100.00;97583.94;4124852;28;20545;-45
2023/08/06 08:28:58;;;;;;;0.40;0.40;;;;;;;15.84;100.00;97578.59;4119444;28;20246;-46
2023/08/06 08:30:59;;;;;;;0.40;0.40;;;;;;;15.79;100.00;97584.25;4123296;28;20684;-47
2023/08/06 08:33:01;;;;;;;0.30;0.30;;;;;;;15.71;100.00;97573.91;4117714;28;20237;-46
2023/08/06 08:35:03;;;;;;;1.08;0.50;;;;;;;15.66;100.00;97582.31;4102659;28;20214;-45
2023/08/06 08:37:06;;;;;;;0.25;0.25;;;;;;;15.70;100.00;97588.03;4116374;28;20280;-47
2023/08/06 08:39:10;;;;;;;0.50;0.50;;;;;;;15.56;100.00;97571.44;4122186;28;20214;-46
2023/08/06 08:41:12;;;;;;;0.43;0.43;;;;;;;15.43;100.00;97588.78;4117709;28;20262;-47
2023/08/06 08:43:14;;;;;;;0.70;0.52;;;;;;;15.26;100.00;97583.03;4122181;28;20282;-45
2023/08/06 08:45:18;;;;;;;0.70;0.40;;;;;;;15.26;100.00;97596.81;4117814;28;20292;-46
2023/08/06 08:47:20;;;;;;;0.57;0.57;;;;;;;15.10;100.00;97581.63;4102313;28;20744;-46
2023/08/06 08:49:23;;;;;;;0.60;0.60;;;;;;;15.06;100.00;97591.63;4120180;28;20248;-47
2023/08/06 08:51:27;;;;;;;0.30;0.30;;;;;;;15.18;100.00;97597.50;4120495;28;20281;-46
2023/08/06 08:53:28;;;;;;;0.77;0.63;;;;;;;15.06;100.00;97597.16;4125745;28;20217;-47
2023/08/06 08:55:31;;;;;;;0.45;0.45;;;;;;;15.11;100.00;97601.75;4118273;28;20713;-46
2023/08/06 08:57:33;;;;;;;0.52;0.50;;;;;;;14.90;100.00;97595.75;4103976;28;20224;-47
2023/08/06 08:59:35;;;;;;;0.35;0.35;;;;;;;15.01;100.00;97602.72;4120500;28;20578;-46
2023/08/06 09:01:38;;;;;;;0.90;0.47;;;;;;;14.89;100.00;97594.09;4119391;28;20664;-46
2023/08/06 09:03:41;;;;;;;1.55;0.40;;;;;;;14.98;100.00;97597.84;4115139;28;20214;-47
2023/08/06 09:05:50;;;;;;;0.68;0.40;;;;;;;14.98;100.00;97597.84;4134885;28;20244;-46
2023/08/06 09:07:52;;;;;;;0.30;0.30;;;;;;;15.10;100.00;97600.91;4111425;28;20317;-46
2023/08/06 09:09:55;;;;;;;0.40;0.40;;;;;;;15.24;100.00;97600.97;4133325;28;20202;-46
2023/08/06 09:12:01;;;;;;;0.38;0.38;;;;;;;15.25;100.00;97614.47;4109547;28;20234;-46
2023/08/06 09:14:03;;;;;;;0.30;0.30;;;;;;;15.19;100.00;97607.41;4120144;28;20696;-45
2023/08/06 09:16:05;;;;;;;0.43;0.30;;;;;;;15.18;100.00;97603.00;4120873;28;20222;-45
2023/08/06 09:18:11;;;;;;;0.50;0.40;;;;;;;15.10;100.00;97616.66;4120087;28;20301;-46
2023/08/06 09:20:14;;;;;;;0.38;0.38;;;;;;;15.24;100.00;97623.81;4124921;28;20669;-46
2023/08/06 09:22:16;;;;;;;0.32;0.32;;;;;;;15.15;100.00;97614.63;4126662;28;20348;-45
2023/08/06 09:24:18;;;;;;;0.40;0.30;;;;;;;15.17;100.00;97617.88;4126911;28;20667;-46
2023/08/06 09:26:19;;;;;;;0.95;0.30;;;;;;;15.26;100.00;97620.78;4117985;28;20218;-47
2023/08/06 09:28:21;;;;;;;0.30;0.30;;;;;;;15.22;100.00;97636.31;4119222;28;20248;-48